Tropical Cyclones
[Index]
Main Index Home Page Stock Weather Photos Extreme Storms Discussion Storm News and Storm Chasing Reports Tropical Cyclones / Hurricanes / Typhoons Weather Data and Links Wild Fires / Bushfires Weather Observation Techniques Weather Picture Catalogue Tornado Pictures and Reports Stock Video Footage and DVDs for sale
Season 2010-2011 Tropical Cyclone 201114 Track Map
Season 2010-2011 Summaries (Operational Data): [AU] [SIO] [SPAC] [SH]
<<- Previous TC | 2010-2011 Season | Next TC ->>

click for intensity scale information  Lat/long Grid: Show Hide

 Date Labels: Show Hide

Operational Tropical Cyclone Data : JTWC Advisories | BoM Warnings

Name: 201114
Number: 1114

10 Feb 2011 19:00 UTC to 16 Feb 2011 06:00 UTC

    date/time    lat    long     hPa   cat  kts
2011-02-10 19   18.7   107.7                             
2011-02-11 00   19.5   107.0    1000         30          
2011-02-11 06   20.3   104.8    1000         30          
2011-02-11 12   20.5   103.5    1000         30          
2011-02-11 18   20.8   102.1    1000         30          
2011-02-12 00   21.0   100.0    1000         30          
2011-02-12 06   20.9    99.0    1000         25          
2011-02-12 12   21.2    98.2    1000                     
2011-02-12 18   21.4    97.2    1000         26          
2011-02-13 00   21.7    96.2    1004         22          
2011-02-13 06   22.1    95.7    1002                     
2011-02-13 12   21.6    95.1    1001                     
2011-02-13 18   20.8    93.7    1002                     
2011-02-14 00   21.6    92.6    1002                     
2011-02-14 06   22.1    91.6    1002                     
2011-02-14 12   21.7    90.7    1003                     
2011-02-14 18   22.3    89.6    1005                     
2011-02-15 00   22.5    87.9    1004                     
2011-02-15 06   22.7    87.7    1006                     
2011-02-15 18   22.8    86.1    1008                     
2011-02-16 00   23.2    84.9    1008                     
2011-02-16 06   23.4    85.7    1008                     
Winds are 10-min average.

Tropical cyclone tracks developed by Michael Bath using operational warnings and advisories and Google Maps.


[Australian Severe Weather index] [Copyright Notice] [Email Contacts] [Search This Site] [Privacy Policy]
Document: tropical_cyclone_201114.htm Updated: 2 May 2017